Time;durP1;ratioP1;P1;durP2;ratioP2;P2;SDS_P1;SDS_P2;PMS_P1;PMS_P2;Temp;Humidity;BMP_temperature;BMP_pressure;BME280_temperature;BME280_humidity;BME280_pressure;Samples;Min_cycle;Max_cycle;Signal;HPM_P1;HPM_P2
2022/07/12 00:02:23;;;;;;;2.75;0.85;;;;;;;16.79;46.27;96722.59;5114445;28;20453;-61
2022/07/12 00:04:50;;;;;;;3.08;1.40;;;;;;;16.75;46.00;96729.88;5114329;28;20474;-61
2022/07/12 00:07:17;;;;;;;1.52;1.10;;;;;;;16.72;46.80;96727.41;5114392;28;20105;-61
2022/07/12 00:09:44;;;;;;;1.25;0.90;;;;;;;16.64;45.07;96732.28;5114299;28;20047;-61
2022/07/12 00:12:11;;;;;;;2.92;1.08;;;;;;;16.61;45.26;96729.81;5114200;28;20139;-61
2022/07/12 00:14:38;;;;;;;1.50;0.98;;;;;;;16.45;47.51;96728.09;5114139;28;20485;-61
2022/07/12 00:17:05;;;;;;;4.82;0.90;;;;;;;16.44;47.98;96730.84;5113998;28;20417;-61
2022/07/12 00:19:34;;;;;;;2.22;1.10;;;;;;;16.29;48.63;96730.81;5114041;28;20093;-62
2022/07/12 00:22:01;;;;;;;3.90;1.25;;;;;;;16.17;48.67;96729.72;5114054;28;20055;-61
2022/07/12 00:24:28;;;;;;;7.30;1.60;;;;;;;16.04;48.79;96732.19;5114047;28;20135;-61
2022/07/12 00:26:55;;;;;;;2.75;1.02;;;;;;;16.00;49.05;96718.34;5113881;28;20134;-61
2022/07/12 00:29:22;;;;;;;1.90;1.23;;;;;;;15.91;48.87;96727.63;5113885;28;20489;-61
2022/07/12 00:31:49;;;;;;;1.92;1.00;;;;;;;15.78;48.76;96723.97;5113920;28;20601;-61
2022/07/12 00:34:16;;;;;;;1.60;1.30;;;;;;;15.70;48.16;96721.75;5114082;28;20050;-61
2022/07/12 00:36:45;;;;;;;1.92;1.10;;;;;;;15.72;48.17;96724.31;5113942;28;20378;-61
2022/07/12 00:39:12;;;;;;;2.03;1.42;;;;;;;15.70;48.32;96720.91;5114011;28;20108;-61
2022/07/12 00:41:39;;;;;;;2.08;1.10;;;;;;;15.71;48.94;96727.88;5113832;28;20048;-62
2022/07/12 00:44:06;;;;;;;2.13;1.13;;;;;;;15.67;49.45;96724.56;5113733;28;20040;-61
2022/07/12 00:46:33;;;;;;;3.38;1.13;;;;;;;15.54;50.20;96735.78;5113431;28;20496;-61
2022/07/12 00:49:01;;;;;;;2.25;0.90;;;;;;;15.42;49.14;96728.56;5113851;28;20043;-61
2022/07/12 00:51:28;;;;;;;2.90;1.00;;;;;;;15.36;50.29;96726.25;5113549;28;20377;-61
2022/07/12 00:53:58;;;;;;;1.25;0.85;;;;;;;15.35;50.00;96732.47;5113783;28;20070;-61
2022/07/12 00:56:26;;;;;;;2.15;1.20;;;;;;;15.18;51.40;96725.47;5113765;28;20048;-61
2022/07/12 00:58:53;;;;;;;1.70;1.20;;;;;;;15.05;52.44;96734.00;5113610;28;20051;-61
2022/07/12 01:01:22;;;;;;;2.40;1.02;;;;;;;14.87;51.61;96738.50;5113760;28;20071;-61
2022/07/12 01:03:50;;;;;;;2.63;1.50;;;;;;;14.82;52.28;96738.72;5113656;28;20141;-61
2022/07/12 01:06:21;;;;;;;2.30;1.17;;;;;;;14.75;53.02;96735.50;5116940;28;20079;-61
2022/07/12 01:08:48;;;;;;;1.42;1.20;;;;;;;14.68;53.74;96738.53;5117925;28;20078;-61
2022/07/12 01:11:17;;;;;;;2.25;1.10;;;;;;;14.61;54.56;96736.25;5117685;28;20047;-61
2022/07/12 01:13:45;;;;;;;1.65;1.20;;;;;;;14.54;54.05;96729.56;5117769;28;20044;-61
2022/07/12 01:16:15;;;;;;;1.92;1.00;;;;;;;14.52;53.92;96731.44;5117752;28;20044;-61
2022/07/12 01:18:44;;;;;;;7.70;1.30;;;;;;;14.51;53.18;96741.09;5117545;28;20075;-61
2022/07/12 01:21:12;;;;;;;1.67;1.10;;;;;;;14.47;54.26;96738.72;5117631;28;20070;-61
2022/07/12 01:23:42;;;;;;;6.82;1.20;;;;;;;14.40;54.54;96731.16;5117519;28;20044;-61
2022/07/12 01:26:09;;;;;;;1.98;1.10;;;;;;;14.34;53.30;96734.09;5117481;28;20043;-61
2022/07/12 01:28:36;;;;;;;2.35;1.27;;;;;;;14.38;53.33;96729.50;5117720;28;20044;-61
2022/07/12 01:31:03;;;;;;;1.88;1.10;;;;;;;14.37;53.37;96731.31;5117305;28;20112;-61
2022/07/12 01:33:32;;;;;;;5.63;1.38;;;;;;;14.34;53.98;96731.44;5117295;28;20105;-61
2022/07/12 01:35:59;;;;;;;1.55;1.30;;;;;;;14.13;54.07;96733.38;5117235;28;20468;-61
2022/07/12 01:38:26;;;;;;;5.05;1.30;;;;;;;13.99;54.92;96736.66;5117304;28;20130;-61
2022/07/12 01:40:55;;;;;;;3.53;1.45;;;;;;;14.03;54.70;96731.19;5117260;28;20412;-61
2022/07/12 01:43:22;;;;;;;1.73;1.05;;;;;;;14.02;55.28;96734.75;5117424;28;20493;-61
2022/07/12 01:45:49;;;;;;;1.73;1.17;;;;;;;14.03;54.53;96743.50;5116875;28;20131;-61
2022/07/12 01:48:16;;;;;;;1.58;1.00;;;;;;;14.09;55.91;96731.81;5117052;28;20075;-61
2022/07/12 01:50:45;;;;;;;1.88;0.93;;;;;;;14.03;56.53;96736.44;5116958;27;20039;-61
2022/07/12 01:53:14;;;;;;;1.58;1.17;;;;;;;14.00;56.52;96735.75;5116954;28;20055;-61
2022/07/12 01:55:41;;;;;;;2.08;1.17;;;;;;;13.99;55.67;96736.66;5116915;28;20056;-61
2022/07/12 01:58:12;;;;;;;3.35;1.50;;;;;;;14.02;56.29;96739.16;5116836;28;20061;-61
2022/07/12 02:00:40;;;;;;;1.33;1.23;;;;;;;14.00;56.48;96736.59;5116842;28;20054;-61
2022/07/12 02:03:07;;;;;;;1.75;1.35;;;;;;;13.99;56.86;96741.91;5116876;27;20054;-61
2022/07/12 02:05:35;;;;;;;2.10;1.20;;;;;;;13.87;56.13;96736.34;5116664;28;20096;-61
2022/07/12 02:08:02;;;;;;;1.80;1.27;;;;;;;13.83;56.52;96740.06;5116711;28;20079;-61
2022/07/12 02:10:29;;;;;;;1.20;1.10;;;;;;;13.82;56.77;96740.13;5116508;28;20409;-61
2022/07/12 02:12:57;;;;;;;8.00;1.40;;;;;;;13.80;57.16;96747.22;5116586;28;20075;-61
2022/07/12 02:15:26;;;;;;;4.30;1.23;;;;;;;13.70;57.51;96741.56;5116610;28;20045;-61
2022/07/12 02:17:53;;;;;;;3.83;1.40;;;;;;;13.62;57.99;96742.78;5115400;28;20055;-61
2022/07/12 02:20:20;;;;;;;1.67;1.20;;;;;;;13.48;58.15;96746.00;5116348;28;20052;-60
2022/07/12 02:22:47;;;;;;;1.83;1.27;;;;;;;13.45;58.41;96750.56;5116410;28;20101;-61
2022/07/12 02:25:14;;;;;;;3.05;1.42;;;;;;;13.35;57.94;96743.09;5116458;28;20096;-61
2022/07/12 02:27:42;;;;;;;1.83;1.15;;;;;;;13.30;58.30;96742.44;5116285;28;20051;-61
2022/07/12 02:30:11;;;;;;;1.48;1.10;;;;;;;13.30;58.77;96752.97;5116264;28;20061;-61
2022/07/12 02:32:39;;;;;;;2.25;1.40;;;;;;;13.27;58.52;96743.44;5116092;28;20082;-61
2022/07/12 02:35:07;;;;;;;5.75;1.20;;;;;;;13.22;58.79;96747.22;5116517;28;20122;-61
2022/07/12 02:37:34;;;;;;;2.95;1.30;;;;;;;13.10;58.92;96748.63;5116213;28;20443;-61
2022/07/12 02:42:42;;;;;;;;;;;;;;;12.99;59.00;96756.97;5116447;28;20117;-61
2022/07/12 02:45:11;;;;;;;3.75;1.23;;;;;;;12.95;58.61;96756.28;5115959;28;19927;-61
2022/07/12 02:47:41;;;;;;;1.42;1.08;;;;;;;12.85;59.21;96747.06;5115750;28;20048;-61
2022/07/12 02:50:09;;;;;;;1.60;1.30;;;;;;;12.80;59.34;96754.31;5115997;28;20175;-61
2022/07/12 02:52:36;;;;;;;1.98;1.33;;;;;;;12.76;59.01;96759.69;5115637;28;20100;-61
2022/07/12 02:55:03;;;;;;;3.88;1.20;;;;;;;12.71;59.50;96756.44;5115847;28;20048;-61
2022/07/12 02:57:30;;;;;;;2.05;1.20;;;;;;;12.69;59.15;96754.75;5115677;28;20055;-61
2022/07/12 02:59:58;;;;;;;4.53;1.10;;;;;;;12.67;59.21;96754.81;5115648;28;20445;-62
2022/07/12 03:02:25;;;;;;;4.05;1.30;;;;;;;12.69;59.05;96763.50;5115638;28;20492;-61
2022/07/12 03:04:53;;;;;;;1.60;1.33;;;;;;;12.60;59.52;96756.88;5115564;28;20051;-61
2022/07/12 03:07:21;;;;;;;1.15;0.90;;;;;;;12.59;60.05;96754.31;5115562;28;20443;-61
2022/07/12 03:09:48;;;;;;;3.35;1.48;;;;;;;12.49;60.38;96756.47;5115529;28;20409;-61
2022/07/12 03:12:15;;;;;;;3.63;1.20;;;;;;;12.45;60.57;96763.63;5115320;28;20142;-61
2022/07/12 03:14:42;;;;;;;1.30;1.10;;;;;;;12.38;60.41;96762.19;5115441;28;20043;-61
2022/07/12 03:17:09;;;;;;;1.90;1.40;;;;;;;12.36;60.58;96759.63;5115415;28;20481;-61
2022/07/12 03:19:37;;;;;;;1.95;1.10;;;;;;;12.35;60.53;96763.16;5115299;28;20409;-61
2022/07/12 03:22:06;;;;;;;1.80;1.20;;;;;;;12.25;61.03;96761.81;5115225;28;20043;-61
2022/07/12 03:24:33;;;;;;;1.25;1.15;;;;;;;12.28;61.20;96766.94;5115115;28;20489;-61
2022/07/12 03:27:00;;;;;;;1.80;1.33;;;;;;;12.27;60.91;96762.63;5115155;28;20040;-61
2022/07/12 03:29:27;;;;;;;2.10;1.20;;;;;;;12.22;61.37;96764.59;5114767;28;20048;-60
2022/07/12 03:31:54;;;;;;;1.98;1.42;;;;;;;12.21;61.82;96760.25;5115012;28;20122;-61
2022/07/12 03:34:21;;;;;;;1.30;1.20;;;;;;;12.18;61.95;96769.09;5114953;28;20476;-61
2022/07/12 03:36:49;;;;;;;3.90;1.20;;;;;;;12.19;61.87;96764.72;5115011;28;20061;-61
2022/07/12 03:39:17;;;;;;;1.77;1.27;;;;;;;12.30;61.79;96772.13;5114879;28;20075;-61
2022/07/12 03:41:44;;;;;;;2.65;1.40;;;;;;;12.49;61.30;96759.94;5114820;28;20457;-61
2022/07/12 03:44:11;;;;;;;3.20;1.20;;;;;;;12.77;61.22;96763.19;5114815;28;20050;-60
2022/07/12 03:46:38;;;;;;;3.33;1.75;;;;;;;13.22;60.10;96761.19;5114446;28;20405;-61
2022/07/12 03:49:05;;;;;;;2.92;1.00;;;;;;;13.67;58.58;96763.59;5114842;28;20047;-61
2022/07/12 03:51:33;;;;;;;1.55;0.90;;;;;;;14.15;56.45;96760.47;5114751;28;20051;-61
2022/07/12 03:54:00;;;;;;;1.77;1.17;;;;;;;14.71;55.85;96762.94;5114494;28;20058;-61
2022/07/12 03:59:13;;;;;;;1.85;1.00;;;;;;;16.03;52.93;96763.03;5114738;28;20435;-62
2022/07/12 04:01:40;;;;;;;1.10;1.00;;;;;;;16.66;51.71;96768.25;5114479;28;20044;-61
2022/07/12 04:04:07;;;;;;;2.33;1.02;;;;;;;17.09;48.71;96766.63;5114682;28;20073;-61
2022/07/12 04:06:35;;;;;;;1.10;1.00;;;;;;;17.63;49.28;96766.88;5114655;28;20069;-62
2022/07/12 04:09:02;;;;;;;2.10;1.52;;;;;;;18.06;47.88;96768.56;5114262;28;20044;-61
2022/07/12 04:11:31;;;;;;;5.22;1.10;;;;;;;18.46;47.24;96778.38;5114225;28;20043;-61
2022/07/12 04:13:58;;;;;;;1.92;0.90;;;;;;;18.89;45.99;96773.78;5114336;28;20051;-62
2022/07/12 04:16:26;;;;;;;1.17;0.95;;;;;;;19.25;44.89;96779.34;5114224;28;20131;-62
2022/07/12 04:18:53;;;;;;;0.77;0.75;;;;;;;19.49;44.20;96774.13;5114119;28;20142;-61
2022/07/12 04:21:21;;;;;;;2.17;0.90;;;;;;;19.83;42.16;96784.97;5114138;28;20043;-62
2022/07/12 04:23:48;;;;;;;3.55;1.27;;;;;;;20.27;42.49;96787.19;5114144;28;20090;-62
2022/07/12 04:26:16;;;;;;;1.92;1.10;;;;;;;20.64;42.19;96785.38;5113952;28;20075;-62
2022/07/12 04:28:44;;;;;;;1.67;1.10;;;;;;;20.99;41.57;96789.88;5114062;28;20079;-62
2022/07/12 04:31:11;;;;;;;1.50;0.80;;;;;;;21.27;41.91;96790.41;5114088;28;20117;-62
2022/07/12 04:33:39;;;;;;;2.78;1.13;;;;;;;21.64;41.51;96789.31;5114240;28;20047;-62
2022/07/12 04:36:06;;;;;;;1.02;0.80;;;;;;;22.00;41.03;96785.69;5113969;28;20120;-62
2022/07/12 04:38:33;;;;;;;2.38;1.00;;;;;;;22.24;40.58;96781.97;5113867;28;20109;-62
2022/07/12 04:41:00;;;;;;;2.63;1.10;;;;;;;22.58;39.85;96788.03;5113273;28;20122;-62
2022/07/12 04:43:28;;;;;;;2.72;1.20;;;;;;;23.00;37.41;96782.88;5114131;28;20083;-62
2022/07/12 04:45:57;;;;;;;4.68;1.00;;;;;;;23.23;36.67;96781.75;5113539;28;20047;-62
2022/07/12 04:48:24;;;;;;;5.18;0.93;;;;;;;23.58;35.83;96785.03;5113723;28;20127;-62
2022/07/12 04:50:51;;;;;;;1.70;0.85;;;;;;;23.93;35.75;96776.72;5113733;28;20048;-62
2022/07/12 04:53:18;;;;;;;1.55;0.90;;;;;;;24.25;36.20;96774.81;5113504;28;20048;-62
2022/07/12 04:55:46;;;;;;;1.90;1.25;;;;;;;24.29;36.90;96782.41;5113819;28;20573;-62
2022/07/12 04:58:13;;;;;;;5.35;0.80;;;;;;;24.58;35.52;96780.72;5113715;28;20126;-62
2022/07/12 05:00:40;;;;;;;4.13;1.05;;;;;;;24.73;35.20;96776.66;5114019;28;20092;-62
2022/07/12 05:03:09;;;;;;;3.42;0.93;;;;;;;24.85;35.88;96784.50;5113587;28;20075;-61
2022/07/12 05:05:36;;;;;;;2.22;1.00;;;;;;;24.72;30.67;96782.97;5113550;28;20075;-62
2022/07/12 05:08:04;;;;;;;1.77;1.10;;;;;;;24.82;29.77;96780.31;5113525;28;20047;-62
2022/07/12 05:10:31;;;;;;;2.45;0.95;;;;;;;25.24;29.52;96780.94;5113536;28;20130;-61
2022/07/12 05:12:58;;;;;;;4.22;0.75;;;;;;;25.44;29.14;96786.25;5113316;28;20059;-62
2022/07/12 05:15:25;;;;;;;4.00;1.00;;;;;;;25.54;29.17;96788.88;5113474;28;20047;-62
2022/07/12 05:17:53;;;;;;;4.47;1.13;;;;;;;25.94;28.98;96782.38;5113630;28;20043;-62
2022/07/12 05:20:22;;;;;;;4.53;1.15;;;;;;;26.09;27.81;96780.03;5113510;28;20076;-62
2022/07/12 05:22:49;;;;;;;3.80;0.82;;;;;;;26.23;27.12;96777.81;5113479;28;20048;-62
2022/07/12 05:25:16;;;;;;;3.83;1.00;;;;;;;26.39;27.64;96779.03;5113344;28;20048;-61
2022/07/12 05:27:44;;;;;;;4.22;0.80;;;;;;;26.69;27.09;96780.47;5113479;28;20105;-62
2022/07/12 05:30:11;;;;;;;3.25;0.98;;;;;;;27.10;27.43;96787.16;5113483;28;20478;-62
2022/07/12 05:32:41;;;;;;;2.50;0.70;;;;;;;27.42;26.73;96785.69;5113203;28;20062;-61
2022/07/12 05:35:10;;;;;;;4.18;0.90;;;;;;;27.44;26.08;96781.00;5113389;28;20088;-61
2022/07/12 05:37:39;;;;;;;6.95;1.00;;;;;;;27.41;26.32;96785.84;5113184;28;20432;-61
2022/07/12 05:40:08;;;;;;;5.55;0.98;;;;;;;27.55;26.26;96792.47;5113376;28;20050;-61
2022/07/12 05:42:36;;;;;;;2.35;1.00;;;;;;;27.67;25.88;96793.91;5113218;28;20109;-62
2022/07/12 05:45:04;;;;;;;1.50;0.90;;;;;;;27.69;26.46;96799.94;5113171;28;20043;-61
2022/07/12 05:47:31;;;;;;;2.58;0.90;;;;;;;27.91;26.95;96792.31;5113000;28;20104;-61
2022/07/12 05:49:58;;;;;;;3.40;1.08;;;;;;;27.83;25.66;96803.03;5113203;28;20123;-61
2022/07/12 05:55:12;;;;;;;2.53;1.05;;;;;;;28.15;25.70;96800.63;5117201;28;20088;-61
2022/07/12 05:57:39;;;;;;;6.07;0.85;;;;;;;28.38;24.99;96793.66;5116772;28;20554;-61
2022/07/12 06:00:08;;;;;;;0.80;0.80;;;;;;;28.62;25.02;96794.69;5116841;28;20052;-62
2022/07/12 06:02:35;;;;;;;1.95;0.90;;;;;;;28.66;25.25;96797.91;5116803;28;20059;-62
2022/07/12 06:05:02;;;;;;;2.50;0.85;;;;;;;28.86;25.85;96789.47;5116829;28;20050;-62
2022/07/12 06:07:30;;;;;;;4.35;1.30;;;;;;;29.03;24.88;96798.44;5116780;28;20044;-61
2022/07/12 06:09:57;;;;;;;2.53;1.10;;;;;;;29.18;24.36;96798.56;5116838;28;20047;-61
2022/07/12 06:12:26;;;;;;;1.85;0.73;;;;;;;29.26;24.44;96803.13;5116577;27;20044;-62
2022/07/12 06:14:54;;;;;;;0.90;0.80;;;;;;;29.45;25.20;96801.03;5116440;28;20050;-62
2022/07/12 06:17:23;;;;;;;1.65;0.85;;;;;;;29.56;24.21;96799.88;5116527;28;20065;-61
2022/07/12 06:19:51;;;;;;;1.67;1.00;;;;;;;29.61;24.34;96798.34;5116560;28;20094;-62
2022/07/12 06:22:18;;;;;;;3.70;1.10;;;;;;;29.21;24.33;96792.84;5116604;28;20524;-61
2022/07/12 06:24:45;;;;;;;2.00;1.00;;;;;;;28.42;25.27;96790.63;5116424;28;20043;-61
2022/07/12 06:27:12;;;;;;;4.75;0.80;;;;;;;28.41;26.20;96794.34;5116446;28;20051;-61
2022/07/12 06:29:41;;;;;;;3.05;1.10;;;;;;;28.68;25.73;96790.47;5116329;28;20451;-62
2022/07/12 06:32:09;;;;;;;1.13;0.73;;;;;;;28.72;26.17;96786.44;5116339;28;20047;-61
2022/07/12 06:34:38;;;;;;;2.38;1.00;;;;;;;29.11;24.85;96789.50;5116037;28;20048;-62
2022/07/12 06:37:08;;;;;;;1.75;0.90;;;;;;;29.19;24.61;96791.34;5116203;28;20427;-62
2022/07/12 06:39:35;;;;;;;4.72;0.80;;;;;;;29.46;24.27;96790.09;5116048;28;20138;-62
2022/07/12 06:42:04;;;;;;;0.63;0.60;;;;;;;29.75;23.54;96780.63;5116152;28;20079;-62
2022/07/12 06:44:32;;;;;;;4.07;0.77;;;;;;;29.62;24.71;96783.03;5115962;28;20401;-62
2022/07/12 06:47:01;;;;;;;2.35;0.90;;;;;;;29.76;23.88;96786.81;5115850;28;20120;-62
2022/07/12 06:49:29;;;;;;;3.17;0.85;;;;;;;30.05;23.84;96782.66;5115866;28;20048;-62
2022/07/12 06:51:56;;;;;;;1.33;0.75;;;;;;;30.32;22.89;96777.81;5115831;28;20130;-62
2022/07/12 06:54:25;;;;;;;2.15;0.80;;;;;;;30.18;21.39;96774.03;5115694;28;20485;-62
2022/07/12 06:56:52;;;;;;;4.45;1.10;;;;;;;29.84;22.11;96780.56;5115668;28;20131;-61
2022/07/12 06:59:19;;;;;;;1.67;0.68;;;;;;;29.68;21.77;96786.88;5115700;28;20397;-62
2022/07/12 07:01:46;;;;;;;1.90;0.80;;;;;;;29.74;21.36;96787.00;5115688;28;20552;-61
2022/07/12 07:04:14;;;;;;;4.30;0.80;;;;;;;29.82;21.44;96787.97;5115047;28;20534;-62
2022/07/12 07:06:42;;;;;;;5.38;0.93;;;;;;;29.60;21.27;96791.28;5115589;28;20556;-62
2022/07/12 07:09:09;;;;;;;0.93;0.73;;;;;;;29.45;22.31;96784.88;5115600;28;20444;-61
2022/07/12 07:11:37;;;;;;;3.75;0.75;;;;;;;29.39;23.58;96786.41;5115497;28;20096;-61
2022/07/12 07:14:04;;;;;;;1.23;0.88;;;;;;;29.30;22.16;96790.13;5115806;28;20051;-61
2022/07/12 07:16:32;;;;;;;6.03;1.27;;;;;;;29.08;22.83;96787.97;5115358;28;20044;-62
2022/07/12 07:18:59;;;;;;;2.20;0.70;;;;;;;29.13;23.48;96785.63;5115374;28;20497;-62
2022/07/12 07:21:27;;;;;;;1.67;0.75;;;;;;;29.36;22.78;96787.59;5115355;28;20074;-62
2022/07/12 07:23:55;;;;;;;1.35;0.70;;;;;;;29.68;22.89;96784.19;5115240;28;20044;-62
2022/07/12 07:26:22;;;;;;;1.23;0.90;;;;;;;29.61;23.00;96790.25;5115080;28;20048;-62
2022/07/12 07:31:36;;;;;;;3.90;0.70;;;;;;;29.73;21.54;96789.88;5115230;28;20508;-62
2022/07/12 07:34:03;;;;;;;5.25;0.60;;;;;;;29.60;22.45;96791.28;5114875;28;20079;-62
2022/07/12 07:36:32;;;;;;;2.38;0.88;;;;;;;29.37;22.82;96786.59;5114923;28;20052;-62
2022/07/12 07:39:00;;;;;;;2.55;0.80;;;;;;;29.60;22.29;96787.72;5115221;28;20130;-62
2022/07/12 07:41:27;;;;;;;1.02;0.73;;;;;;;29.60;21.11;96787.72;5115386;28;20104;-62
2022/07/12 07:43:54;;;;;;;3.22;0.68;;;;;;;29.81;22.35;96783.59;5115196;28;20081;-61
2022/07/12 07:46:22;;;;;;;2.15;0.85;;;;;;;29.90;21.34;96793.34;5114643;28;20043;-62
2022/07/12 07:48:49;;;;;;;1.27;0.68;;;;;;;29.69;21.15;96785.84;5114736;28;20047;-61
2022/07/12 07:51:16;;;;;;;1.90;0.90;;;;;;;30.00;22.03;96795.81;5114657;28;20445;-62
2022/07/12 07:53:45;;;;;;;2.20;0.60;;;;;;;29.26;22.66;96789.66;5114534;28;20092;-61
2022/07/12 07:56:13;;;;;;;6.80;0.93;;;;;;;29.02;21.53;96794.06;5114692;28;20044;-62
2022/07/12 07:58:40;;;;;;;4.60;1.05;;;;;;;28.83;22.97;96781.75;5114757;28;20535;-61
2022/07/12 08:01:08;;;;;;;2.78;0.80;;;;;;;28.74;22.02;96781.75;5114497;27;20118;-61
2022/07/12 08:03:35;;;;;;;3.60;0.80;;;;;;;28.81;23.05;96779.25;5114514;28;20211;-61
2022/07/12 08:06:02;;;;;;;1.70;0.80;;;;;;;28.75;22.27;96796.88;5114412;28;20051;-61
2022/07/12 08:08:30;;;;;;;4.40;0.70;;;;;;;28.58;21.29;96782.59;5114456;28;20101;-61
2022/07/12 08:10:59;;;;;;;4.32;1.02;;;;;;;28.22;22.47;96785.50;5114244;28;20051;-61
2022/07/12 08:13:26;;;;;;;1.52;1.00;;;;;;;28.19;22.49;96791.22;5114493;28;20047;-61
2022/07/12 08:15:53;;;;;;;5.10;1.02;;;;;;;28.22;22.84;96781.00;5113602;28;20108;-61
2022/07/12 08:18:21;;;;;;;1.02;0.80;;;;;;;28.31;22.97;96778.34;5114405;28;20051;-61
2022/07/12 08:20:49;;;;;;;2.58;0.98;;;;;;;27.75;23.56;96790.41;5114212;28;20075;-61
2022/07/12 08:23:17;;;;;;;4.38;1.00;;;;;;;27.80;23.76;96789.91;5114193;28;20051;-61
2022/07/12 08:25:44;;;;;;;4.55;0.98;;;;;;;28.12;24.18;96794.56;5114065;28;20127;-61
2022/07/12 08:28:13;;;;;;;6.35;1.00;;;;;;;28.37;23.92;96783.91;5114080;28;20048;-61
2022/07/12 08:30:41;;;;;;;3.25;1.25;;;;;;;28.50;23.20;96791.47;5113958;28;20101;-61
2022/07/12 08:33:08;;;;;;;2.47;0.98;;;;;;;28.71;23.77;96782.09;5113943;28;20132;-61
2022/07/12 08:35:35;;;;;;;4.00;1.02;;;;;;;28.93;22.89;96786.97;5113869;28;20051;-61
2022/07/12 08:38:03;;;;;;;1.85;0.70;;;;;;;28.60;22.58;96782.41;5113951;28;20044;-61
2022/07/12 08:40:30;;;;;;;4.47;0.95;;;;;;;28.86;21.71;96778.72;5113876;28;20062;-61
2022/07/12 08:42:59;;;;;;;4.70;1.08;;;;;;;29.00;22.74;96780.78;5113579;28;20098;-61
2022/07/12 08:45:29;;;;;;;1.38;0.80;;;;;;;29.00;22.96;96777.22;5113886;28;20058;-61
2022/07/12 08:47:56;;;;;;;3.30;0.85;;;;;;;29.36;23.11;96779.53;5113824;28;20130;-61
2022/07/12 08:50:24;;;;;;;7.30;1.25;;;;;;;29.63;22.59;96784.69;5113780;28;20047;-61
2022/07/12 08:52:53;;;;;;;1.95;0.90;;;;;;;29.10;21.36;96774.34;5113756;28;20398;-61
2022/07/12 08:55:24;;;;;;;3.47;0.80;;;;;;;28.88;21.89;96772.16;5113558;28;20044;-61
2022/07/12 08:57:53;;;;;;;0.88;0.73;;;;;;;28.66;22.42;96765.63;5113753;28;20070;-61
2022/07/12 09:00:20;;;;;;;3.65;0.93;;;;;;;28.59;21.52;96757.34;5113687;28;20048;-61
2022/07/12 09:02:51;;;;;;;2.75;1.10;;;;;;;28.17;23.20;96755.63;5113534;28;20134;-61
2022/07/12 09:05:20;;;;;;;1.45;0.88;;;;;;;28.22;23.50;96748.72;5113579;28;20054;-61
2022/07/12 09:07:47;;;;;;;1.92;0.95;;;;;;;28.32;23.93;96750.47;5113523;28;20052;-61
2022/07/12 09:10:15;;;;;;;4.22;0.93;;;;;;;28.41;24.12;96740.56;5113610;28;20079;-61
2022/07/12 09:12:44;;;;;;;1.40;0.77;;;;;;;28.38;22.92;96745.25;5113565;28;20082;-61
2022/07/12 09:15:19;;;;;;;0.73;0.70;;;;;;;27.33;23.53;96738.31;5113278;28;20053;-61
2022/07/12 09:17:58;;;;;;;1.42;0.80;;;;;;;26.95;25.31;96752.84;5113435;28;20553;-61
2022/07/12 09:20:27;;;;;;;1.35;0.85;;;;;;;26.66;25.62;96758.50;5113494;28;20044;-61
2022/07/12 09:22:56;;;;;;;3.65;0.85;;;;;;;26.68;24.81;96753.78;5113552;28;20101;-61
2022/07/12 09:25:24;;;;;;;2.05;0.80;;;;;;;27.08;25.00;96754.25;5113832;28;20127;-61
2022/07/12 09:27:53;;;;;;;0.85;0.65;;;;;;;27.61;24.12;96738.13;5117538;28;20043;-61
2022/07/12 09:30:21;;;;;;;2.05;0.90;;;;;;;28.11;23.27;96743.69;5117481;28;20048;-61
2022/07/12 09:38:24;;;;;;;3.35;0.65;;;;;;;28.08;23.83;96739.44;5117431;28;20069;-61
2022/07/12 09:40:51;;;;;;;2.65;1.27;;;;;;;27.40;24.40;96733.13;5117263;28;20485;-61
2022/07/12 09:43:19;;;;;;;2.03;1.17;;;;;;;27.10;24.78;96746.91;5116975;28;20043;-61
2022/07/12 09:45:48;;;;;;;2.25;0.73;;;;;;;26.49;25.20;96740.41;5116850;28;20051;-61
2022/07/12 09:48:16;;;;;;;3.90;1.00;;;;;;;26.39;25.20;96733.44;5116883;28;20052;-61
2022/07/12 09:50:48;;;;;;;1.15;0.90;;;;;;;26.12;26.78;96736.00;5117052;28;20405;-61
2022/07/12 09:53:22;;;;;;;2.03;0.93;;;;;;;25.36;26.47;96734.28;5116969;28;20143;-61
2022/07/12 09:55:53;;;;;;;2.75;1.00;;;;;;;25.43;25.68;96736.38;5116856;28;20051;-61
2022/07/12 09:58:26;;;;;;;1.58;0.90;;;;;;;25.66;25.73;96738.69;5117239;28;20044;-61
2022/07/12 10:00:54;;;;;;;1.13;0.70;;;;;;;25.91;27.38;96736.31;5116785;28;20082;-61
2022/07/12 10:03:24;;;;;;;1.88;0.90;;;;;;;26.19;26.14;96730.88;5116837;28;20090;-61
2022/07/12 10:05:57;;;;;;;2.07;1.17;;;;;;;25.95;26.16;96727.78;5116695;28;20048;-61
2022/07/12 10:08:24;;;;;;;1.77;1.00;;;;;;;26.07;25.94;96725.72;5116735;28;20048;-60
2022/07/12 10:10:52;;;;;;;2.35;0.90;;;;;;;26.35;25.14;96720.34;5116626;28;20044;-61
2022/07/12 10:13:21;;;;;;;2.00;0.90;;;;;;;26.60;24.96;96717.00;5116674;28;20046;-61
2022/07/12 10:15:49;;;;;;;4.28;1.20;;;;;;;26.99;25.40;96718.50;5116649;28;20066;-60
2022/07/12 10:18:20;;;;;;;2.83;1.08;;;;;;;27.40;24.74;96720.56;5116471;28;20051;-61
2022/07/12 10:20:47;;;;;;;;;;;;;;;27.33;24.99;96725.72;5116958;28;20047;-61
2022/07/12 10:23:37;;;;;;;1.55;0.73;;;;;;;27.08;23.83;96722.91;5116615;28;20334;-61
2022/07/12 10:26:26;;;;;;;2.33;0.82;;;;;;;26.75;25.42;96726.19;5116317;28;20134;-61
2022/07/12 10:29:01;;;;;;;1.88;0.80;;;;;;;26.70;24.17;96723.13;5116328;28;20039;-61
2022/07/12 10:31:31;;;;;;;2.00;0.98;;;;;;;26.71;24.84;96710.56;5116351;28;20047;-61
2022/07/12 10:34:21;;;;;;;0.65;0.63;;;;;;;26.82;24.47;96704.13;5116236;28;20382;-61
2022/07/12 10:37:11;;;;;;;5.15;0.90;;;;;;;26.99;24.84;96708.59;5116255;27;20052;-61
2022/07/12 10:39:40;;;;;;;2.43;0.63;;;;;;;27.42;24.17;96710.50;5115863;28;20055;-61
2022/07/12 10:42:18;;;;;;;3.75;0.70;;;;;;;27.76;23.30;96711.50;5116374;28;20052;-61
2022/07/12 10:44:48;;;;;;;1.13;0.80;;;;;;;27.99;24.01;96706.34;5116039;28;20069;-61
2022/07/12 10:47:18;;;;;;;2.47;0.80;;;;;;;28.00;21.74;96699.94;5116123;28;20129;-61
2022/07/12 10:49:50;;;;;;;3.33;0.73;;;;;;;27.77;23.58;96696.19;5115781;28;20079;-61
2022/07/12 10:52:26;;;;;;;1.17;0.80;;;;;;;27.15;23.88;96698.94;5115853;28;20052;-61
2022/07/12 10:55:19;;;;;;;5.07;0.77;;;;;;;26.81;23.96;96703.25;5115768;28;20052;-61
2022/07/12 10:57:51;;;;;;;1.80;0.73;;;;;;;26.55;25.09;96697.88;5101103;27;20466;-61
2022/07/12 11:00:19;;;;;;;1.85;0.80;;;;;;;26.46;24.95;96699.66;5115852;28;20101;-61
2022/07/12 11:02:46;;;;;;;5.00;1.00;;;;;;;26.84;24.29;96688.69;5115637;28;20047;-61
2022/07/12 11:05:14;;;;;;;0.93;0.70;;;;;;;27.29;23.78;96683.25;5115822;27;20550;-61
2022/07/12 11:07:42;;;;;;;1.50;0.70;;;;;;;27.70;23.42;96685.28;5115599;28;20044;-61
2022/07/12 11:10:14;;;;;;;2.65;0.93;;;;;;;27.83;23.95;96679.44;5115664;28;20047;-61
2022/07/12 11:12:43;;;;;;;3.08;0.70;;;;;;;28.06;24.31;96679.66;5115608;28;20489;-61
2022/07/12 11:15:12;;;;;;;3.78;0.85;;;;;;;28.49;23.86;96689.44;5115414;28;20055;-61
2022/07/12 11:17:40;;;;;;;2.13;0.80;;;;;;;28.69;22.33;96683.72;5115571;28;20126;-61
2022/07/12 11:20:10;;;;;;;1.00;0.70;;;;;;;28.92;23.21;96691.91;5115356;28;20525;-61
2022/07/12 11:22:38;;;;;;;;;;;;;;;28.73;22.26;96685.91;5115842;28;20139;-61
2022/07/12 11:25:08;;;;;;;4.13;1.00;;;;;;;28.85;22.77;96691.78;5115183;28;20331;-62
2022/07/12 11:27:36;;;;;;;5.25;1.00;;;;;;;28.66;22.11;96684.06;5115400;28;20094;-61
2022/07/12 11:30:06;;;;;;;0.70;0.68;;;;;;;28.34;22.74;96683.91;5115133;28;20047;-61
2022/07/12 11:32:39;;;;;;;2.45;0.93;;;;;;;27.46;22.84;96676.97;5115198;28;20143;-62
2022/07/12 11:35:19;;;;;;;4.28;0.90;;;;;;;27.13;23.00;96671.44;5114860;28;20054;-61
2022/07/12 11:37:51;;;;;;;1.83;0.60;;;;;;;27.04;23.59;96675.09;5114979;28;20367;-61
2022/07/12 11:40:23;;;;;;;3.50;1.08;;;;;;;26.47;25.00;96669.16;5114951;28;20083;-61
2022/07/12 11:42:58;;;;;;;1.42;0.80;;;;;;;26.21;24.83;96670.75;5114811;28;20051;-61
2022/07/12 11:45:28;;;;;;;2.75;0.95;;;;;;;26.16;24.63;96678.44;5114814;28;20039;-61
2022/07/12 11:47:56;;;;;;;2.25;0.90;;;;;;;26.18;24.56;96676.44;5114711;28;20051;-61
2022/07/12 11:50:23;;;;;;;1.80;0.80;;;;;;;26.22;24.39;96679.66;5114691;28;20052;-61
2022/07/12 11:52:51;;;;;;;1.77;0.80;;;;;;;26.33;25.78;96674.06;5114755;27;20131;-61
2022/07/12 11:55:18;;;;;;;6.38;1.00;;;;;;;26.36;25.23;96671.09;5114668;28;20079;-61
2022/07/12 11:57:45;;;;;;;2.28;0.88;;;;;;;26.48;25.62;96677.06;5114600;28;20090;-61